Time;durP1;ratioP1;P1;durP2;ratioP2;P2;SDS_P1;SDS_P2;PMS_P1;PMS_P2;Temp;Humidity;BMP_temperature;BMP_pressure;BME280_temperature;BME280_humidity;BME280_pressure;Samples;Min_cycle;Max_cycle;Signal;HPM_P1;HPM_P2
2021/08/09 00:00:57;;;;;;;5.85;2.92;;;;;;;;;;5110976;28;20024;-68
2021/08/09 00:03:23;;;;;;;4.50;2.65;;;;;;;;;;5111241;28;20020;-69
2021/08/09 00:07:55;;;;;;;4.45;2.83;;;;;;;;;;5111782;27;20900;-69
2021/08/09 00:10:21;;;;;;;5.72;3.28;;;;;;;;;;5111351;28;20028;-69
2021/08/09 00:12:48;;;;;;;7.10;2.85;;;;;;;;;;5111063;28;20498;-69
2021/08/09 00:15:14;;;;;;;7.82;3.28;;;;;;;;;;5111280;28;20016;-68
2021/08/09 00:17:40;;;;;;;5.88;3.42;;;;;;;;;;5111155;28;20016;-68
2021/08/09 00:24:09;;;;;;;10.40;5.60;;;;;;;;;;5111411;27;20497;-69
2021/08/09 00:26:35;;;;;;;15.45;6.22;;;;;;;;;;5110989;28;20028;-69
2021/08/09 00:29:02;;;;;;;9.63;5.40;;;;;;;;;;5111437;28;20073;-69
2021/08/09 00:32:30;;;;;;;10.05;5.90;;;;;;;;;;5111580;27;20389;-69
2021/08/09 00:34:56;;;;;;;9.73;5.70;;;;;;;;;;5111804;28;20032;-69
2021/08/09 00:37:22;;;;;;;8.13;4.50;;;;;;;;;;5111399;28;20056;-68
2021/08/09 00:39:48;;;;;;;8.07;4.13;;;;;;;;;;5109665;28;20108;-68
2021/08/09 00:42:14;;;;;;;9.45;3.95;;;;;;;;;;5111256;28;20484;-69
2021/08/09 00:44:43;;;;;;;7.05;3.85;;;;;;;;;;5111255;28;20073;-69
2021/08/09 00:47:09;;;;;;;6.18;3.72;;;;;;;;;;5110792;28;20039;-69
2021/08/09 00:49:35;;;;;;;6.75;4.05;;;;;;;;;;5111304;28;20534;-70
2021/08/09 00:52:02;;;;;;;7.60;3.65;;;;;;;;;;5111494;28;20036;-69
2021/08/09 00:54:28;;;;;;;7.55;3.78;;;;;;;;;;5109333;28;20499;-69
2021/08/09 00:56:55;;;;;;;8.45;4.68;;;;;;;;;;5110872;28;20067;-68
2021/08/09 00:59:21;;;;;;;8.27;4.70;;;;;;;;;;5110915;28;20050;-68
2021/08/09 01:03:41;;;;;;;8.55;4.15;;;;;;;;;;5132320;27;20327;-67
2021/08/09 01:06:07;;;;;;;8.00;4.35;;;;;;;;;;5093087;28;20051;-68
2021/08/09 01:08:42;;;;;;;8.57;4.10;;;;;;;;;;5092601;28;20073;-68
2021/08/09 01:11:08;;;;;;;8.80;4.30;;;;;;;;;;5111408;28;20035;-68
2021/08/09 01:13:37;;;;;;;9.02;4.15;;;;;;;;;;5111164;28;20020;-69
2021/08/09 01:16:07;;;;;;;8.05;4.32;;;;;;;;;;5110853;28;20023;-68
2021/08/09 01:18:35;;;;;;;10.25;4.38;;;;;;;;;;5111609;28;20048;-68
2021/08/09 01:21:01;;;;;;;7.78;3.65;;;;;;;;;;5092797;28;20032;-68
2021/08/09 01:23:33;;;;;;;6.07;3.78;;;;;;;;;;5110483;28;20042;-68
2021/08/09 01:26:03;;;;;;;7.95;3.85;;;;;;;;;;5092712;28;20020;-68
2021/08/09 01:28:31;;;;;;;6.75;4.47;;;;;;;;;;5111392;28;20044;-68
2021/08/09 01:32:41;;;;;;;8.32;4.25;;;;;;;;;;5111494;27;20839;-67
2021/08/09 01:36:08;;;;;;;9.88;4.20;;;;;;;;;;5111002;27;20773;-67
2021/08/09 01:38:35;;;;;;;7.65;4.45;;;;;;;;;;5109981;28;20089;-67
2021/08/09 01:41:02;;;;;;;7.20;4.05;;;;;;;;;;5111259;28;20100;-67
2021/08/09 01:43:28;;;;;;;8.80;4.80;;;;;;;;;;5111041;28;20054;-68
2021/08/09 01:45:55;;;;;;;7.25;4.55;;;;;;;;;;5109945;28;20030;-68
2021/08/09 01:48:22;;;;;;;9.35;5.13;;;;;;;;;;5111208;28;20016;-68
2021/08/09 01:50:48;;;;;;;8.25;4.55;;;;;;;;;;5110912;28;20031;-68
2021/08/09 01:53:15;;;;;;;9.13;5.75;;;;;;;;;;5111387;28;20023;-68
2021/08/09 01:55:41;;;;;;;7.35;4.50;;;;;;;;;;5109662;28;20036;-70
2021/08/09 01:58:08;;;;;;;10.35;5.03;;;;;;;;;;5110552;28;20388;-70
2021/08/09 02:00:34;;;;;;;7.95;4.90;;;;;;;;;;5110992;28;20035;-68
2021/08/09 02:03:00;;;;;;;10.02;4.97;;;;;;;;;;5110938;28;20087;-69
2021/08/09 02:05:26;;;;;;;9.00;4.72;;;;;;;;;;5110320;28;20035;-68
2021/08/09 02:07:53;;;;;;;10.63;5.45;;;;;;;;;;5109496;28;20066;-68
2021/08/09 02:12:29;;;;;;;7.70;4.72;;;;;;;;;;5110979;27;20997;-68
2021/08/09 02:14:58;;;;;;;8.32;4.90;;;;;;;;;;5111417;28;20488;-67
2021/08/09 02:19:06;;;;;;;8.18;4.45;;;;;;;;;;5111438;27;20397;-68
2021/08/09 02:21:33;;;;;;;7.82;3.80;;;;;;;;;;5111360;28;20020;-68
2021/08/09 02:24:34;;;;;;;7.70;4.43;;;;;;;;;;5111409;27;20401;-68
2021/08/09 02:27:07;;;;;;;7.88;4.25;;;;;;;;;;5110972;28;20024;-68
2021/08/09 02:29:33;;;;;;;;;;;;;;;;;;5110420;28;20043;-68
2021/08/09 02:32:01;;;;;;;7.60;4.28;;;;;;;;;;5111286;28;19908;-70
2021/08/09 02:34:29;;;;;;;7.60;4.50;;;;;;;;;;5110825;28;20086;-68
2021/08/09 02:36:55;;;;;;;9.52;5.38;;;;;;;;;;5111435;28;20031;-68
2021/08/09 02:39:22;;;;;;;9.48;5.25;;;;;;;;;;5110643;28;20057;-68
2021/08/09 02:41:49;;;;;;;8.70;5.18;;;;;;;;;;5111160;28;20035;-68
2021/08/09 02:44:15;;;;;;;8.18;4.78;;;;;;;;;;5109680;28;20028;-68
2021/08/09 02:46:42;;;;;;;9.63;5.43;;;;;;;;;;5110583;28;20019;-68
2021/08/09 02:49:10;;;;;;;12.38;4.70;;;;;;;;;;5110975;28;20020;-68
2021/08/09 02:51:36;;;;;;;8.23;4.65;;;;;;;;;;5110881;28;20070;-68
2021/08/09 02:54:03;;;;;;;9.30;5.28;;;;;;;;;;5110455;28;20020;-68
2021/08/09 02:57:59;;;;;;;7.15;4.40;;;;;;;;;;5111624;27;20496;-68
2021/08/09 03:00:25;;;;;;;9.10;5.18;;;;;;;;;;5111016;28;20024;-68
2021/08/09 03:03:43;;;;;;;10.48;5.97;;;;;;;;;;5111914;27;20508;-67
2021/08/09 03:06:10;;;;;;;15.27;5.72;;;;;;;;;;5111465;28;20035;-67
2021/08/09 03:08:37;;;;;;;11.55;5.85;;;;;;;;;;5110978;28;20020;-69
2021/08/09 03:13:03;;;;;;;10.15;6.00;;;;;;;;;;5112116;27;20392;-69
2021/08/09 03:15:31;;;;;;;12.75;6.38;;;;;;;;;;5110998;28;20111;-68
2021/08/09 03:17:57;;;;;;;10.35;6.63;;;;;;;;;;5110015;28;20031;-68
2021/08/09 03:20:23;;;;;;;10.15;5.93;;;;;;;;;;5111228;28;20479;-68
2021/08/09 03:22:49;;;;;;;9.82;5.90;;;;;;;;;;5110812;28;20028;-68
2021/08/09 03:26:42;;;;;;;9.65;5.32;;;;;;;;;;5111470;27;20397;-68
2021/08/09 03:29:08;;;;;;;8.65;5.25;;;;;;;;;;5110950;28;20020;-67
2021/08/09 03:31:35;;;;;;;10.57;6.35;;;;;;;;;;5111342;28;20047;-68
2021/08/09 03:34:29;;;;;;;9.32;5.57;;;;;;;;;;5112229;27;20381;-69
2021/08/09 03:36:55;;;;;;;7.38;4.63;;;;;;;;;;5111007;28;20030;-67
2021/08/09 03:39:22;;;;;;;10.45;5.90;;;;;;;;;;5111363;28;20361;-67
2021/08/09 03:41:48;;;;;;;9.88;5.72;;;;;;;;;;5110052;28;20031;-68
2021/08/09 03:44:14;;;;;;;8.90;5.57;;;;;;;;;;5109676;28;20541;-67
2021/08/09 03:48:06;;;;;;;9.50;5.93;;;;;;;;;;5111709;27;20388;-67
2021/08/09 03:50:32;;;;;;;10.23;6.18;;;;;;;;;;5111143;28;20016;-68
2021/08/09 03:52:59;;;;;;;9.93;5.80;;;;;;;;;;5111309;28;20556;-68
2021/08/09 03:55:25;;;;;;;9.18;5.80;;;;;;;;;;5111485;28;20032;-68
2021/08/09 03:57:51;;;;;;;12.60;5.60;;;;;;;;;;5110826;28;20098;-68
2021/08/09 04:01:26;;;;;;;10.80;6.03;;;;;;;;;;5071254;28;20384;-67
2021/08/09 04:07:51;;;;;;;10.65;6.07;;;;;;;;;;5112163;27;20377;-70
2021/08/09 04:10:17;;;;;;;8.95;5.85;;;;;;;;;;5111439;28;20032;-70
2021/08/09 04:12:43;;;;;;;12.52;6.38;;;;;;;;;;5110961;28;20027;-69
2021/08/09 04:15:09;;;;;;;14.63;7.18;;;;;;;;;;5111531;28;20397;-69
2021/08/09 04:17:57;;;;;;;13.20;6.43;;;;;;;;;;5111523;27;20505;-68
2021/08/09 04:20:23;;;;;;;11.93;6.97;;;;;;;;;;5111387;28;20102;-70
2021/08/09 04:23:18;;;;;;;9.07;5.85;;;;;;;;;;5111454;27;20438;-71
2021/08/09 04:26:10;;;;;;;14.50;6.45;;;;;;;;;;5111224;27;20928;-68
2021/08/09 04:28:36;;;;;;;9.73;5.32;;;;;;;;;;5110109;28;20106;-69
2021/08/09 04:31:03;;;;;;;11.07;5.80;;;;;;;;;;5111287;28;20084;-69
2021/08/09 04:36:48;;;;;;;9.73;6.32;;;;;;;;;;5111328;27;20442;-69
2021/08/09 04:40:52;;;;;;;9.10;6.25;;;;;;;;;;5110996;27;20113;-68
2021/08/09 04:43:18;;;;;;;11.00;6.35;;;;;;;;;;5111452;28;20031;-68
2021/08/09 04:46:50;;;;;;;7.90;5.13;;;;;;;;;;5111378;27;20397;-67
2021/08/09 04:49:16;;;;;;;10.52;5.38;;;;;;;;;;5111394;28;20024;-67
2021/08/09 04:51:42;;;;;;;10.75;5.18;;;;;;;;;;5111347;28;20035;-68
2021/08/09 04:55:34;;;;;;;10.30;5.70;;;;;;;;;;5112144;27;20397;-69
2021/08/09 04:58:00;;;;;;;8.70;5.07;;;;;;;;;;5111392;28;20391;-70
2021/08/09 05:04:37;;;;;;;9.80;5.72;;;;;;;;;;5112212;27;20389;-70
2021/08/09 05:07:04;;;;;;;14.60;6.57;;;;;;;;;;5110949;28;20514;-70
2021/08/09 05:09:30;;;;;;;9.77;5.18;;;;;;;;;;5111324;28;20031;-67
2021/08/09 05:11:56;;;;;;;11.32;5.25;;;;;;;;;;5110047;28;20391;-68
2021/08/09 05:16:27;;;;;;;12.38;6.18;;;;;;;;;;5099500;27;1610341;-68
2021/08/09 05:19:44;;;;;;;9.02;5.65;;;;;;;;;;5112198;27;20398;-68
2021/08/09 05:23:48;;;;;;;8.95;6.07;;;;;;;;;;5111813;27;20473;-68
2021/08/09 05:26:50;;;;;;;9.93;5.75;;;;;;;;;;5063932;28;20394;-67
2021/08/09 05:29:17;;;;;;;9.10;5.47;;;;;;;;;;5069100;28;20528;-68
2021/08/09 05:31:43;;;;;;;10.60;5.32;;;;;;;;;;5067285;28;20021;-68
2021/08/09 05:34:09;;;;;;;9.98;5.65;;;;;;;;;;5058443;28;20016;-69
2021/08/09 05:36:36;;;;;;;9.30;5.28;;;;;;;;;;5056345;28;20524;-69
2021/08/09 05:39:04;;;;;;;16.00;5.53;;;;;;;;;;5059537;28;20038;-69
2021/08/09 05:41:32;;;;;;;12.27;6.72;;;;;;;;;;5058667;28;20079;-68
2021/08/09 05:43:58;;;;;;;11.90;5.70;;;;;;;;;;5054067;28;20029;-69
2021/08/09 05:46:25;;;;;;;12.10;6.57;;;;;;;;;;5059444;28;20394;-68
2021/08/09 05:48:51;;;;;;;10.18;5.78;;;;;;;;;;5059983;28;20025;-69
2021/08/09 05:51:17;;;;;;;11.55;5.97;;;;;;;;;;5059727;28;20029;-69
2021/08/09 05:53:43;;;;;;;8.38;4.72;;;;;;;;;;5063469;28;20029;-68
2021/08/09 05:56:09;;;;;;;10.02;5.38;;;;;;;;;;5069687;28;20508;-69
2021/08/09 05:58:37;;;;;;;11.10;5.95;;;;;;;;;;5067518;28;20418;-69
2021/08/09 06:01:05;;;;;;;12.48;6.97;;;;;;;;;;5065438;28;21666;-70
2021/08/09 06:05:20;;;;;;;12.35;6.78;;;;;;;;;;5111042;27;20532;-69
2021/08/09 06:07:46;;;;;;;10.85;6.65;;;;;;;;;;5111543;28;20539;-69
2021/08/09 06:10:12;;;;;;;10.68;5.55;;;;;;;;;;5105158;28;20036;-69
2021/08/09 06:12:39;;;;;;;13.15;5.72;;;;;;;;;;5098316;28;20472;-69
2021/08/09 06:15:06;;;;;;;8.98;5.22;;;;;;;;;;5098716;28;20055;-69
2021/08/09 06:17:35;;;;;;;8.88;4.82;;;;;;;;;;5088142;28;20020;-69
2021/08/09 06:21:51;;;;;;;9.05;4.57;;;;;;;;;;5050574;28;21008;-70
2021/08/09 06:24:17;;;;;;;9.18;4.75;;;;;;;;;;5049363;28;20033;-71
2021/08/09 06:26:43;;;;;;;7.55;4.57;;;;;;;;;;5048827;28;20709;-70
2021/08/09 06:30:23;;;;;;;7.10;3.95;;;;;;;;;;5053070;28;20939;-68
2021/08/09 06:32:49;;;;;;;8.48;4.20;;;;;;;;;;5052468;28;20048;-69
2021/08/09 06:35:15;;;;;;;8.82;5.20;;;;;;;;;;5047733;28;20024;-69
2021/08/09 06:37:41;;;;;;;9.27;4.63;;;;;;;;;;5051798;28;20025;-68
2021/08/09 06:40:10;;;;;;;9.13;4.10;;;;;;;;;;5047089;28;20632;-69
2021/08/09 06:42:36;;;;;;;11.13;4.45;;;;;;;;;;5050079;28;20432;-69
2021/08/09 06:45:03;;;;;;;5.95;3.40;;;;;;;;;;5051671;28;20081;-68
2021/08/09 06:50:12;;;;;;;8.15;4.03;;;;;;;;;;5091691;27;20497;-69
2021/08/09 06:52:38;;;;;;;7.55;4.60;;;;;;;;;;5093805;28;20070;-69
2021/08/09 06:55:06;;;;;;;7.85;3.97;;;;;;;;;;5093836;28;20471;-69
2021/08/09 06:57:32;;;;;;;7.43;3.50;;;;;;;;;;5091452;28;20510;-69
2021/08/09 06:59:59;;;;;;;6.88;3.88;;;;;;;;;;5090805;28;20038;-69
2021/08/09 07:02:26;;;;;;;7.00;4.20;;;;;;;;;;5088541;28;20031;-69
2021/08/09 07:04:52;;;;;;;9.35;4.07;;;;;;;;;;5089082;28;20732;-69
2021/08/09 07:07:18;;;;;;;12.10;4.35;;;;;;;;;;5086714;28;20055;-69
2021/08/09 07:09:44;;;;;;;7.18;4.30;;;;;;;;;;5086975;28;20028;-69
2021/08/09 07:12:10;;;;;;;7.35;3.95;;;;;;;;;;5092263;28;20028;-69
2021/08/09 07:14:37;;;;;;;6.45;3.92;;;;;;;;;;5092714;28;20028;-68
2021/08/09 07:17:03;;;;;;;8.43;4.25;;;;;;;;;;5090562;28;20023;-69
2021/08/09 07:19:29;;;;;;;;;;;;;;;;;;5096574;28;20460;-69
2021/08/09 07:21:55;;;;;;;;;;;;;;;;;;5091961;28;19998;-69
2021/08/09 07:24:21;;;;;;;;;;;;;;;;;;5097240;28;19916;-69
2021/08/09 07:26:47;;;;;;;;;;;;;;;;;;5109870;28;19904;-69
2021/08/09 07:29:13;;;;;;;;;;;;;;;;;;5106822;28;19970;-69
2021/08/09 07:31:39;;;;;;;;;;;;;;;;;;5101467;28;19995;-71
2021/08/09 07:34:05;;;;;;;;;;;;;;;;;;5092652;28;19922;-71
2021/08/09 07:36:31;;;;;;;;;;;;;;;;;;5093486;28;19904;-69
2021/08/09 07:38:57;;;;;;;;;;;;;;;;;;5119208;28;19964;-69
2021/08/09 07:41:23;;;;;;;;;;;;;;;;;;5121480;28;20469;-69
2021/08/09 07:43:49;;;;;;;;;;;;;;;;;;5122101;28;20002;-69
2021/08/09 07:46:15;;;;;;;;;;;;;;;;;;5113042;28;20359;-69
2021/08/09 07:48:41;;;;;;;;;;;;;;;;;;5090697;28;19928;-68
2021/08/09 07:51:07;;;;;;;;;;;;;;;;;;5089307;28;19958;-69
2021/08/09 07:53:33;;;;;;;;;;;;;;;;;;5099701;28;20279;-68
2021/08/09 07:55:59;;;;;;;;;;;;;;;;;;5109899;28;19976;-69
2021/08/09 07:58:25;;;;;;;;;;;;;;;;;;5110220;28;19903;-69
2021/08/09 08:00:53;;;;;;;;;;;;;;;;;;5100499;28;19911;-68
2021/08/09 08:03:19;;;;;;;;;;;;;;;;;;5096248;28;19904;-68
2021/08/09 08:05:45;;;;;;;;;;;;;;;;;;5113680;28;19941;-68
2021/08/09 08:08:11;;;;;;;;;;;;;;;;;;5115404;28;20589;-68
2021/08/09 08:10:37;;;;;;;;;;;;;;;;;;5115249;28;19917;-69
2021/08/09 08:13:03;;;;;;;;;;;;;;;;;;5116619;28;19904;-69
2021/08/09 08:15:29;;;;;;;;;;;;;;;;;;5115484;28;19910;-69
2021/08/09 08:17:55;;;;;;;;;;;;;;;;;;5116256;28;19904;-69
2021/08/09 08:20:21;;;;;;;;;;;;;;;;;;5116758;28;19957;-69
2021/08/09 08:22:47;;;;;;;;;;;;;;;;;;5116673;28;19904;-70
2021/08/09 08:25:13;;;;;;;;;;;;;;;;;;5116266;28;19914;-69
2021/08/09 08:27:39;;;;;;;;;;;;;;;;;;5115495;28;19911;-67
2021/08/09 08:30:05;;;;;;;;;;;;;;;;;;5116559;28;20399;-67
2021/08/09 08:32:31;;;;;;;;;;;;;;;;;;5116252;28;19903;-68
2021/08/09 08:34:57;;;;;;;;;;;;;;;;;;5116528;28;19908;-68
2021/08/09 08:37:23;;;;;;;;;;;;;;;;;;5116362;28;20045;-69
2021/08/09 08:39:49;;;;;;;;;;;;;;;;;;5116128;28;19948;-69
2021/08/09 08:42:15;;;;;;;;;;;;;;;;;;5116592;28;20380;-69
2021/08/09 08:44:41;;;;;;;;;;;;;;;;;;5116711;28;19910;-69
2021/08/09 08:47:07;;;;;;;;;;;;;;;;;;5116150;28;19979;-70
2021/08/09 08:49:33;;;;;;;;;;;;;;;;;;5114766;28;19923;-70
2021/08/09 08:51:59;;;;;;;;;;;;;;;;;;5115221;28;19904;-71
2021/08/09 08:54:25;;;;;;;;;;;;;;;;;;5114794;28;19957;-70
2021/08/09 08:56:51;;;;;;;;;;;;;;;;;;5116531;28;20016;-70
2021/08/09 08:59:18;;;;;;;;;;;;;;;;;;5115681;28;19908;-70
2021/08/09 09:01:44;;;;;;;;;;;;;;;;;;5113559;28;19911;-70
2021/08/09 09:04:10;;;;;;;;;;;;;;;;;;5115537;28;19929;-70
2021/08/09 09:06:36;;;;;;;;;;;;;;;;;;5115642;28;19904;-71
2021/08/09 09:09:02;;;;;;;;;;;;;;;;;;5115963;28;19923;-72
2021/08/09 09:11:28;;;;;;;;;;;;;;;;;;5115777;28;19939;-70
2021/08/09 09:13:54;;;;;;;;;;;;;;;;;;5113917;28;19999;-71
2021/08/09 09:16:20;;;;;;;;;;;;;;;;;;5115858;28;19904;-70
2021/08/09 09:18:47;;;;;;;;;;;;;;;;;;5115835;28;19915;-70
2021/08/09 09:21:13;;;;;;;;;;;;;;;;;;5115171;28;20364;-72
2021/08/09 09:23:39;;;;;;;;;;;;;;;;;;5116242;28;19911;-71
2021/08/09 09:26:05;;;;;;;;;;;;;;;;;;5108936;28;19973;-71
2021/08/09 09:28:34;;;;;;;;;;;;;;;;;;5093234;28;19919;-71
2021/08/09 09:31:10;;;;;;;;;;;;;;;;;;5095207;28;19904;-71
2021/08/09 09:33:36;;;;;;;;;;;;;;;;;;5094981;28;19915;-71
2021/08/09 09:36:02;;;;;;;;;;;;;;;;;;5094547;28;19911;-71
2021/08/09 09:38:28;;;;;;;;;;;;;;;;;;5094806;28;19904;-70
2021/08/09 09:40:54;;;;;;;;;;;;;;;;;;5094559;28;20386;-70
2021/08/09 09:43:20;;;;;;;;;;;;;;;;;;5094444;28;19911;-71
2021/08/09 09:45:46;;;;;;;;;;;;;;;;;;5093544;28;19904;-70
2021/08/09 09:48:13;;;;;;;;;;;;;;;;;;5092225;28;19923;-69
2021/08/09 09:50:42;;;;;;;;;;;;;;;;;;5094671;28;19943;-71
2021/08/09 09:53:08;;;;;;;;;;;;;;;;;;5093507;28;19904;-70
2021/08/09 09:55:34;;;;;;;;;;;;;;;;;;5094123;28;19998;-71
2021/08/09 09:58:00;;;;;;;;;;;;;;;;;;5094697;28;19904;-71
2021/08/09 10:00:26;;;;;;;;;;;;;;;;;;5094561;28;20360;-70
2021/08/09 10:02:52;;;;;;;;;;;;;;;;;;5092545;28;20007;-71
2021/08/09 10:05:18;;;;;;;;;;;;;;;;;;5095327;28;19904;-71
2021/08/09 10:07:44;;;;;;;;;;;;;;;;;;5089530;28;19929;-72
2021/08/09 10:10:10;;;;;;;;;;;;;;;;;;5091234;28;20390;-71
2021/08/09 10:12:36;;;;;;;;;;;;;;;;;;5094657;28;19904;-71
2021/08/09 10:15:02;;;;;;;;;;;;;;;;;;5094056;28;20533;-71
2021/08/09 10:17:28;;;;;;;;;;;;;;;;;;5093381;28;19910;-71
2021/08/09 10:19:54;;;;;;;;;;;;;;;;;;5094489;28;20425;-72
2021/08/09 10:22:20;;;;;;;;;;;;;;;;;;5094482;28;19905;-70
2021/08/09 10:24:46;;;;;;;;;;;;;;;;;;5091984;28;19999;-71
2021/08/09 10:27:12;;;;;;;;;;;;;;;;;;5092727;28;19999;-70
2021/08/09 10:29:38;;;;;;;;;;;;;;;;;;5092941;28;19912;-70
2021/08/09 10:32:04;;;;;;;;;;;;;;;;;;5094065;28;19911;-74
2021/08/09 10:34:30;;;;;;;;;;;;;;;;;;5093734;28;19986;-73
2021/08/09 10:36:56;;;;;;;;;;;;;;;;;;5092110;28;20387;-72
2021/08/09 10:39:22;;;;;;;;;;;;;;;;;;5091140;28;19912;-72
2021/08/09 10:41:48;;;;;;;;;;;;;;;;;;5092457;28;20008;-71
2021/08/09 10:44:14;;;;;;;;;;;;;;;;;;5092937;28;19927;-71
2021/08/09 10:46:40;;;;;;;;;;;;;;;;;;5092653;28;19950;-72
2021/08/09 10:49:06;;;;;;;;;;;;;;;;;;5093012;28;20411;-71
2021/08/09 10:51:32;;;;;;;;;;;;;;;;;;5092470;28;19947;-73
2021/08/09 10:53:58;;;;;;;;;;;;;;;;;;5094105;28;19939;-71
2021/08/09 10:56:24;;;;;;;;;;;;;;;;;;5094130;28;19904;-72
2021/08/09 10:58:51;;;;;;;;;;;;;;;;;;5093580;28;19973;-72
2021/08/09 11:01:17;;;;;;;;;;;;;;;;;;5093986;28;19908;-72
2021/08/09 11:03:43;;;;;;;;;;;;;;;;;;5093998;28;20276;-72
2021/08/09 11:06:09;;;;;;;;;;;;;;;;;;5093626;28;19943;-72
2021/08/09 11:08:35;;;;;;;;;;;;;;;;;;5093938;28;19965;-72
2021/08/09 11:11:01;;;;;;;;;;;;;;;;;;5093810;28;19904;-71
2021/08/09 11:13:27;;;;;;;;;;;;;;;;;;5093347;28;20383;-73
2021/08/09 11:15:54;;;;;;;;;;;;;;;;;;5092436;28;19911;-73
2021/08/09 11:18:20;;;;;;;;;;;;;;;;;;5093694;28;19904;-72
2021/08/09 11:20:46;;;;;;;;;;;;;;;;;;5087507;28;19957;-72
2021/08/09 11:23:12;;;;;;;;;;;;;;;;;;5093611;28;20399;-73
2021/08/09 11:25:38;;;;;;;;;;;;;;;;;;5093592;28;19904;-71
2021/08/09 11:28:04;;;;;;;;;;;;;;;;;;5093146;28;19954;-69
2021/08/09 11:30:30;;;;;;;;;;;;;;;;;;5093543;28;19915;-70
2021/08/09 11:32:56;;;;;;;;;;;;;;;;;;5093674;28;19908;-70
2021/08/09 11:35:22;;;;;;;;;;;;;;;;;;5094296;28;20345;-70
2021/08/09 11:37:55;;;;;;;10.80;3.05;;;;;;;;;;5096472;28;20414;-71
2021/08/09 11:40:35;;;;;;;8.23;3.45;;;;;;;;;;5095990;28;20054;-78
2021/08/09 11:43:01;;;;;;;7.97;2.83;;;;;;;;;;5096298;28;20024;-75
2021/08/09 11:45:28;;;;;;;4.28;2.25;;;;;;;;;;5096868;28;20035;-70
2021/08/09 11:47:55;;;;;;;7.40;3.63;;;;;;;;;;5096076;28;20072;-74
2021/08/09 11:50:24;;;;;;;4.90;2.30;;;;;;;;;;5097023;28;20047;-71
2021/08/09 11:52:51;;;;;;;8.55;3.25;;;;;;;;;;5095439;28;20384;-74
2021/08/09 11:55:21;;;;;;;6.85;2.85;;;;;;;;;;5096546;28;20048;-74
2021/08/09 11:57:47;;;;;;;7.93;2.75;;;;;;;;;;5097366;28;20496;-73
2021/08/09 12:00:13;;;;;;;7.68;2.35;;;;;;;;;;5096948;28;20110;-75
2021/08/09 12:02:58;;;;;;;6.82;2.25;;;;;;;;;;5096607;28;20031;-75
2021/08/09 12:05:25;;;;;;;3.85;2.03;;;;;;;;;;5096763;28;20487;-73
2021/08/09 12:08:04;;;;;;;7.57;2.15;;;;;;;;;;5096810;28;20035;-74
2021/08/09 12:10:30;;;;;;;8.48;3.70;;;;;;;;;;5096061;28;20416;-72
2021/08/09 12:12:57;;;;;;;7.22;2.15;;;;;;;;;;5096475;28;20091;-71
2021/08/09 12:15:24;;;;;;;5.13;2.28;;;;;;;;;;5096600;28;20028;-73
2021/08/09 12:18:06;;;;;;;5.53;2.28;;;;;;;;;;5094720;28;20024;-71
2021/08/09 12:20:32;;;;;;;7.15;2.17;;;;;;;;;;5096282;28;20024;-74
2021/08/09 12:22:59;;;;;;;8.65;3.00;;;;;;;;;;5095816;28;20099;-74
2021/08/09 12:25:38;;;;;;;4.93;2.13;;;;;;;;;;5096045;28;20024;-73
2021/08/09 12:28:05;;;;;;;6.18;2.05;;;;;;;;;;5096090;28;20383;-73
2021/08/09 12:30:50;;;;;;;3.17;2.17;;;;;;;;;;5096295;28;20050;-73
2021/08/09 12:33:16;;;;;;;3.53;1.73;;;;;;;;;;5096334;28;20023;-73
2021/08/09 12:35:42;;;;;;;4.78;1.55;;;;;;;;;;5096414;28;20031;-73
2021/08/09 12:38:12;;;;;;;7.75;2.35;;;;;;;;;;5095646;28;20024;-73
2021/08/09 12:40:40;;;;;;;5.78;2.38;;;;;;;;;;5099376;28;20028;-73
2021/08/09 12:43:08;;;;;;;6.78;2.55;;;;;;;;;;5094323;28;20020;-73
2021/08/09 12:45:35;;;;;;;5.28;2.13;;;;;;;;;;5095257;28;20029;-72
2021/08/09 12:48:03;;;;;;;5.25;1.70;;;;;;;;;;5095220;28;20507;-73
2021/08/09 12:50:29;;;;;;;7.47;2.60;;;;;;;;;;5094230;28;20043;-73
2021/08/09 12:52:55;;;;;;;6.80;2.35;;;;;;;;;;5095243;28;20020;-74
2021/08/09 12:55:21;;;;;;;4.95;1.92;;;;;;;;;;5095810;28;20078;-73
2021/08/09 12:57:51;;;;;;;4.25;2.03;;;;;;;;;;5095330;28;20020;-72
2021/08/09 13:00:18;;;;;;;4.85;1.73;;;;;;;;;;5094454;28;20013;-72
2021/08/09 13:02:44;;;;;;;7.50;1.83;;;;;;;;;;5094056;28;20031;-72
2021/08/09 13:05:10;;;;;;;3.03;1.38;;;;;;;;;;5094995;28;20028;-73
2021/08/09 13:07:36;;;;;;;3.78;1.65;;;;;;;;;;5095322;28;20093;-73
2021/08/09 13:10:04;;;;;;;7.13;1.90;;;;;;;;;;5094123;28;20032;-73
2021/08/09 13:12:30;;;;;;;8.43;2.53;;;;;;;;;;5092045;28;20472;-73
2021/08/09 13:14:57;;;;;;;5.32;1.65;;;;;;;;;;5093473;28;20031;-73
2021/08/09 13:17:23;;;;;;;3.70;1.58;;;;;;;;;;5092951;28;20031;-72
2021/08/09 13:19:49;;;;;;;7.78;1.90;;;;;;;;;;5093971;28;20028;-72
2021/08/09 13:22:16;;;;;;;10.07;2.28;;;;;;;;;;5094231;28;20020;-73
2021/08/09 13:24:42;;;;;;;4.50;2.50;;;;;;;;;;5094046;28;20028;-73
2021/08/09 13:27:09;;;;;;;5.68;2.10;;;;;;;;;;5093919;28;20091;-73
2021/08/09 13:29:35;;;;;;;4.93;1.70;;;;;;;;;;5095984;28;20054;-72
2021/08/09 13:32:01;;;;;;;4.40;2.22;;;;;;;;;;5095225;28;20020;-72
2021/08/09 13:34:28;;;;;;;4.35;2.00;;;;;;;;;;5094320;28;20024;-72
2021/08/09 13:36:54;;;;;;;12.13;2.20;;;;;;;;;;5094946;28;20032;-72
2021/08/09 13:39:20;;;;;;;8.93;2.20;;;;;;;;;;5094591;28;20400;-72
2021/08/09 13:41:46;;;;;;;6.90;2.00;;;;;;;;;;5093012;28;20020;-72
2021/08/09 13:44:12;;;;;;;7.97;2.05;;;;;;;;;;5094491;28;20027;-73
2021/08/09 13:46:39;;;;;;;4.80;2.03;;;;;;;;;;5094737;28;20024;-72
2021/08/09 13:49:05;;;;;;;5.63;2.55;;;;;;;;;;5093860;28;20052;-72
2021/08/09 13:51:31;;;;;;;5.88;2.00;;;;;;;;;;5094802;28;20353;-72
2021/08/09 13:53:58;;;;;;;3.97;1.70;;;;;;;;;;5094620;28;20016;-73
2021/08/09 13:56:24;;;;;;;4.70;1.95;;;;;;;;;;5094041;28;20111;-73
2021/08/09 13:58:50;;;;;;;4.45;1.90;;;;;;;;;;5094176;28;20388;-73
2021/08/09 14:01:17;;;;;;;4.53;1.90;;;;;;;;;;5094169;28;20020;-70
2021/08/09 14:03:44;;;;;;;6.85;2.28;;;;;;;;;;5094161;28;20020;-72
2021/08/09 14:06:10;;;;;;;5.50;1.90;;;;;;;;;;5094556;28;20027;-73
2021/08/09 14:08:37;;;;;;;9.00;2.38;;;;;;;;;;5093873;28;20431;-73
2021/08/09 14:11:03;;;;;;;6.20;1.90;;;;;;;;;;5094294;28;20032;-73
2021/08/09 14:13:30;;;;;;;4.35;2.20;;;;;;;;;;5094044;28;20023;-73
2021/08/09 14:15:56;;;;;;;4.82;2.25;;;;;;;;;;5093993;28;20387;-73
2021/08/09 14:18:23;;;;;;;6.72;2.00;;;;;;;;;;5092730;28;20028;-71
2021/08/09 14:20:50;;;;;;;4.93;2.20;;;;;;;;;;5093975;28;20465;-73
2021/08/09 14:23:16;;;;;;;4.13;1.88;;;;;;;;;;5092301;28;20115;-73
2021/08/09 14:25:42;;;;;;;5.72;1.70;;;;;;;;;;5094000;28;20388;-73
2021/08/09 14:28:08;;;;;;;4.18;2.20;;;;;;;;;;5094111;28;20027;-71
2021/08/09 14:30:34;;;;;;;5.35;2.30;;;;;;;;;;5093399;28;20369;-72
2021/08/09 14:33:00;;;;;;;6.00;2.15;;;;;;;;;;5092614;28;20024;-72
2021/08/09 14:35:27;;;;;;;6.88;2.00;;;;;;;;;;5092500;28;20089;-71
2021/08/09 14:37:53;;;;;;;6.32;2.13;;;;;;;;;;5093396;28;20040;-72
2021/08/09 14:40:20;;;;;;;5.47;2.05;;;;;;;;;;5092366;28;20499;-71
2021/08/09 14:42:46;;;;;;;6.80;2.33;;;;;;;;;;5092450;28;20032;-72
2021/08/09 14:45:12;;;;;;;9.32;2.80;;;;;;;;;;5093355;28;20095;-72
2021/08/09 14:47:42;;;;;;;7.22;2.80;;;;;;;;;;5093557;28;20073;-72
2021/08/09 14:50:09;;;;;;;8.82;2.05;;;;;;;;;;5093444;28;20051;-72
2021/08/09 14:52:35;;;;;;;6.53;2.53;;;;;;;;;;5093164;28;20024;-73
2021/08/09 14:55:02;;;;;;;4.03;2.20;;;;;;;;;;5093803;28;20380;-74
2021/08/09 14:57:28;;;;;;;5.55;2.22;;;;;;;;;;5093234;28;20099;-74
2021/08/09 14:59:54;;;;;;;4.95;2.05;;;;;;;;;;5092270;28;20030;-71
2021/08/09 15:02:22;;;;;;;4.85;2.00;;;;;;;;;;5093541;28;20024;-71
2021/08/09 15:04:48;;;;;;;3.70;1.77;;;;;;;;;;5093135;28;20024;-71
2021/08/09 15:07:14;;;;;;;4.40;1.40;;;;;;;;;;5093787;28;20016;-72
2021/08/09 15:09:40;;;;;;;3.65;1.52;;;;;;;;;;5093340;28;20066;-72
2021/08/09 15:12:07;;;;;;;3.58;1.50;;;;;;;;;;5097261;28;20729;-72
2021/08/09 15:14:33;;;;;;;6.15;2.08;;;;;;;;;;5097420;28;20024;-72
2021/08/09 15:16:59;;;;;;;4.50;1.67;;;;;;;;;;5096257;28;20111;-72
2021/08/09 15:19:26;;;;;;;7.18;2.08;;;;;;;;;;5096974;28;20046;-73
2021/08/09 15:21:53;;;;;;;4.95;2.08;;;;;;;;;;5097225;28;20024;-72
2021/08/09 15:24:19;;;;;;;4.53;1.80;;;;;;;;;;5097544;28;20028;-72
2021/08/09 15:26:45;;;;;;;2.95;1.55;;;;;;;;;;5097027;28;20041;-72
2021/08/09 15:29:11;;;;;;;7.75;2.15;;;;;;;;;;5097208;28;20035;-73
2021/08/09 15:31:37;;;;;;;4.22;1.80;;;;;;;;;;5095797;28;20499;-71
2021/08/09 15:34:04;;;;;;;6.05;2.05;;;;;;;;;;5096802;28;20103;-72
2021/08/09 15:36:30;;;;;;;4.63;1.55;;;;;;;;;;5097050;28;20032;-71
2021/08/09 15:38:56;;;;;;;4.55;2.05;;;;;;;;;;5097222;28;20490;-71
2021/08/09 15:41:22;;;;;;;8.07;2.45;;;;;;;;;;5096418;28;20103;-71
2021/08/09 15:43:48;;;;;;;6.45;2.65;;;;;;;;;;5096985;28;20384;-71
2021/08/09 15:46:19;;;;;;;4.63;2.28;;;;;;;;;;5095546;28;20157;-72
2021/08/09 15:48:45;;;;;;;4.82;2.33;;;;;;;;;;5096161;28;20032;-72
2021/08/09 15:51:12;;;;;;;4.38;1.80;;;;;;;;;;5095499;28;20028;-72
2021/08/09 15:53:39;;;;;;;5.38;1.52;;;;;;;;;;5096727;28;20020;-72
2021/08/09 15:56:07;;;;;;;7.07;1.88;;;;;;;;;;5096357;28;20384;-71
2021/08/09 15:58:34;;;;;;;3.63;2.00;;;;;;;;;;5095366;28;20028;-72
2021/08/09 16:01:00;;;;;;;3.67;1.73;;;;;;;;;;5096407;28;20066;-71
2021/08/09 16:03:28;;;;;;;2.97;1.42;;;;;;;;;;5097115;28;20044;-72